Time;durP1;ratioP1;P1;durP2;ratioP2;P2;SDS_P1;SDS_P2;PMS_P1;PMS_P2;Temp;Humidity;BMP_temperature;BMP_pressure;BME280_temperature;BME280_humidity;BME280_pressure;Samples;Min_cycle;Max_cycle;Signal;HPM_P1;HPM_P2
2022/08/22 00:02:29;;;;;;;10.80;7.10;;;14.20;99.90;;;;;;5024479;28;20086;-58
2022/08/22 00:05:27;;;;;;;11.80;7.35;;;14.10;99.90;;;;;;5028929;28;20033;-60
2022/08/22 00:08:11;;;;;;;11.30;7.18;;;14.00;99.90;;;;;;5025347;28;20125;-60
2022/08/22 00:10:39;;;;;;;15.50;7.47;;;14.00;99.90;;;;;;5027357;28;20088;-59
2022/08/22 00:13:35;;;;;;;10.63;6.18;;;13.90;99.90;;;;;;5027055;28;20059;-59
2022/08/22 00:16:19;;;;;;;12.10;6.38;;;13.90;99.90;;;;;;5026313;28;20484;-59
2022/08/22 00:19:04;;;;;;;15.98;7.38;;;13.90;99.90;;;;;;5029311;28;20029;-59
2022/08/22 00:21:45;;;;;;;11.13;5.75;;;13.90;99.90;;;;;;5024386;28;20056;-58
2022/08/22 00:24:22;;;;;;;12.68;7.00;;;13.90;99.90;;;;;;5028424;28;20511;-59
2022/08/22 00:27:14;;;;;;;15.02;6.10;;;13.80;99.90;;;;;;5025067;28;20091;-59
2022/08/22 00:29:51;;;;;;;14.85;6.40;;;13.70;99.90;;;;;;5016805;28;20117;-58
2022/08/22 00:32:31;;;;;;;11.25;6.45;;;13.70;99.90;;;;;;5041365;28;20064;-59
2022/08/22 00:35:18;;;;;;;12.10;6.22;;;13.70;99.90;;;;;;5029419;28;20507;-60
2022/08/22 00:38:04;;;;;;;9.30;6.18;;;13.70;99.90;;;;;;5025194;28;20026;-58
2022/08/22 00:40:59;;;;;;;14.35;7.28;;;13.70;99.90;;;;;;5041852;28;20030;-59
2022/08/22 00:43:53;;;;;;;13.13;6.70;;;13.70;99.90;;;;;;5048197;28;20124;-59
2022/08/22 00:46:38;;;;;;;8.85;5.90;;;13.80;99.90;;;;;;5038492;28;20077;-58
2022/08/22 00:49:43;;;;;;;12.23;6.80;;;13.80;99.90;;;;;;5031994;28;20021;-59
2022/08/22 00:52:35;;;;;;;15.52;6.50;;;13.90;99.90;;;;;;5035375;28;20045;-59
2022/08/22 00:55:49;;;;;;;10.52;6.82;;;13.90;99.90;;;;;;5052045;28;20045;-59
2022/08/22 00:58:44;;;;;;;11.18;6.82;;;13.80;99.90;;;;;;5029470;28;20033;-59
2022/08/22 01:01:14;;;;;;;13.10;6.35;;;13.60;99.90;;;;;;5019480;28;20033;-59
2022/08/22 01:03:48;;;;;;;12.35;6.15;;;13.50;99.90;;;;;;5030932;28;20029;-59
2022/08/22 01:06:22;;;;;;;11.35;6.20;;;13.50;99.90;;;;;;5028069;28;20037;-59
2022/08/22 01:09:36;;;;;;;12.98;6.32;;;13.40;99.90;;;;;;5030082;28;20030;-59
2022/08/22 01:12:23;;;;;;;8.55;6.13;;;13.30;99.90;;;;;;5011764;28;20584;-59
2022/08/22 01:14:56;;;;;;;14.30;6.22;;;13.30;99.90;;;;;;5030856;28;20038;-58
2022/08/22 01:17:47;;;;;;;10.15;5.95;;;13.30;99.90;;;;;;5030045;28;20033;-59
2022/08/22 01:20:38;;;;;;;10.25;6.10;;;13.30;99.90;;;;;;5029370;28;20047;-59
2022/08/22 01:23:18;;;;;;;15.18;7.43;;;13.20;99.90;;;;;;5027226;28;20048;-59
2022/08/22 01:26:11;;;;;;;12.57;7.10;;;13.20;99.90;;;;;;5030080;28;20052;-59
2022/08/22 01:28:58;;;;;;;15.07;6.90;;;13.20;99.90;;;;;;5029742;28;20042;-59
2022/08/22 01:31:58;;;;;;;10.75;6.72;;;13.20;99.90;;;;;;5034447;28;20028;-59
2022/08/22 01:35:10;;;;;;;13.50;6.40;;;13.20;99.90;;;;;;5006462;28;20056;-58
2022/08/22 01:37:53;;;;;;;9.75;6.55;;;13.20;99.90;;;;;;5006654;28;20045;-60
2022/08/22 01:40:58;;;;;;;13.93;6.80;;;13.20;99.90;;;;;;5030217;28;20029;-58
2022/08/22 01:43:48;;;;;;;12.68;6.97;;;13.20;99.90;;;;;;5036071;28;20033;-58
2022/08/22 01:46:25;;;;;;;12.32;6.35;;;13.30;99.90;;;;;;5013521;28;20046;-59
2022/08/22 01:49:11;;;;;;;13.32;6.35;;;13.30;99.90;;;;;;5032224;28;20116;-59
2022/08/22 01:52:17;;;;;;;12.88;6.47;;;13.20;99.90;;;;;;5030881;28;20068;-58
2022/08/22 01:54:54;;;;;;;24.75;6.95;;;13.20;99.90;;;;;;5030985;28;20030;-58
2022/08/22 01:57:21;;;;;;;11.40;7.10;;;13.10;99.90;;;;;;5034971;28;20090;-58
2022/08/22 01:59:51;;;;;;;12.45;6.53;;;13.10;99.90;;;;;;5040805;28;20456;-59
2022/08/22 02:02:51;;;;;;;11.27;6.63;;;13.10;99.90;;;;;;5025243;28;20029;-59
2022/08/22 02:05:30;;;;;;;11.70;6.78;;;13.00;99.90;;;;;;5029490;28;20107;-59
2022/08/22 02:08:20;;;;;;;17.35;7.03;;;13.00;99.90;;;;;;5029472;28;20038;-60
2022/08/22 02:11:01;;;;;;;10.70;6.80;;;13.10;99.90;;;;;;5030113;28;20061;-58
2022/08/22 02:13:32;;;;;;;13.25;7.28;;;13.00;99.90;;;;;;5036581;28;20099;-59
2022/08/22 02:16:25;;;;;;;11.65;6.80;;;13.00;99.90;;;;;;5030051;28;20026;-59
2022/08/22 02:19:06;;;;;;;12.30;7.05;;;12.80;99.90;;;;;;5026736;28;20083;-58
2022/08/22 02:21:54;;;;;;;11.82;7.30;;;12.90;99.90;;;;;;5022329;28;20463;-58
2022/08/22 02:24:28;;;;;;;11.10;6.82;;;13.00;99.90;;;;;;5020668;28;20033;-58
2022/08/22 02:27:05;;;;;;;14.13;7.90;;;13.00;99.90;;;;;;5029366;28;20521;-58
2022/08/22 02:30:00;;;;;;;14.05;7.40;;;12.90;99.90;;;;;;5028255;28;20065;-58
2022/08/22 02:32:40;;;;;;;13.05;7.20;;;12.90;99.90;;;;;;5026900;28;20029;-59
2022/08/22 02:35:09;;;;;;;11.40;6.38;;;12.90;99.90;;;;;;5030239;28;20060;-59
2022/08/22 02:37:52;;;;;;;12.82;6.72;;;12.80;99.90;;;;;;5029320;28;20034;-59
2022/08/22 02:40:27;;;;;;;18.02;7.20;;;12.70;99.90;;;;;;5045396;28;20025;-60
2022/08/22 02:43:07;;;;;;;11.70;6.63;;;12.60;99.90;;;;;;5027885;28;20049;-59
2022/08/22 02:45:45;;;;;;;10.45;5.97;;;12.60;99.90;;;;;;5028719;28;20029;-59
2022/08/22 02:48:31;;;;;;;11.57;6.50;;;12.60;99.90;;;;;;5029328;28;20028;-58
2022/08/22 02:50:56;;;;;;;11.30;6.57;;;12.60;99.90;;;;;;5029815;28;20068;-59
2022/08/22 02:53:46;;;;;;;10.95;6.20;;;12.60;99.90;;;;;;5030175;28;20053;-58
2022/08/22 02:56:21;;;;;;;16.33;6.50;;;12.60;99.90;;;;;;5028006;28;20539;-58
2022/08/22 02:59:22;;;;;;;12.05;5.97;;;12.60;99.90;;;;;;5020144;28;20033;-59
2022/08/22 03:01:50;;;;;;;10.68;6.07;;;12.50;99.90;;;;;;5027806;28;20380;-58
2022/08/22 03:04:24;;;;;;;9.70;5.93;;;12.50;99.90;;;;;;5027039;28;20033;-59
2022/08/22 03:06:59;;;;;;;13.05;6.20;;;12.50;99.90;;;;;;5030458;28;20038;-58
2022/08/22 03:09:31;;;;;;;8.05;5.32;;;12.40;99.90;;;;;;5027693;28;20055;-58
2022/08/22 03:12:07;;;;;;;9.52;5.90;;;12.30;99.90;;;;;;5028606;28;20029;-58
2022/08/22 03:14:48;;;;;;;12.27;6.03;;;12.30;99.90;;;;;;5045345;28;20037;-58
2022/08/22 03:17:25;;;;;;;11.02;6.22;;;12.30;99.90;;;;;;5027614;28;20031;-58
2022/08/22 03:19:59;;;;;;;11.85;6.25;;;12.30;99.90;;;;;;5029266;28;20029;-58
2022/08/22 03:22:36;;;;;;;13.15;6.70;;;12.40;99.90;;;;;;5044572;28;20056;-59
2022/08/22 03:25:25;;;;;;;11.32;6.18;;;12.40;99.90;;;;;;5029087;28;20045;-58
2022/08/22 03:28:01;;;;;;;13.57;6.68;;;12.50;99.90;;;;;;5028508;28;20052;-59
2022/08/22 03:30:58;;;;;;;12.50;6.38;;;12.50;99.90;;;;;;5028104;28;20017;-58
2022/08/22 03:33:30;;;;;;;11.90;7.05;;;12.40;99.90;;;;;;5029237;28;20046;-58
2022/08/22 03:36:04;;;;;;;14.77;7.25;;;12.30;99.90;;;;;;5027402;28;20041;-58
2022/08/22 03:38:32;;;;;;;8.77;5.72;;;12.30;99.90;;;;;;5029124;28;20106;-58
2022/08/22 03:41:01;;;;;;;12.10;6.25;;;12.30;99.90;;;;;;5027626;28;20025;-59
2022/08/22 03:43:36;;;;;;;9.23;5.78;;;12.20;99.90;;;;;;5028750;28;20021;-58
2022/08/22 03:46:24;;;;;;;10.02;6.03;;;12.10;99.90;;;;;;5027938;28;20057;-58
2022/08/22 03:49:23;;;;;;;9.32;5.45;;;11.90;99.90;;;;;;5027250;28;20424;-58
2022/08/22 03:52:26;;;;;;;9.77;5.88;;;11.80;99.90;;;;;;5027208;28;20025;-58
2022/08/22 03:55:07;;;;;;;12.38;6.30;;;11.90;99.90;;;;;;5027754;28;20041;-59
2022/08/22 03:57:48;;;;;;;;;;;11.90;99.90;;;;;;5029251;28;20112;-58
2022/08/22 04:00:37;;;;;;;;;;;11.90;99.90;;;;;;5028909;28;20283;-59
2022/08/22 04:03:40;;;;;;;15.82;6.75;;;12.00;99.90;;;;;;5009139;28;19909;-58
2022/08/22 04:06:38;;;;;;;11.57;6.70;;;11.90;99.90;;;;;;5028146;28;20144;-60
2022/08/22 04:09:31;;;;;;;11.65;6.95;;;11.80;99.90;;;;;;5021178;28;20527;-58
2022/08/22 04:12:24;;;;;;;11.95;6.40;;;11.80;99.90;;;;;;5020656;28;20033;-58
2022/08/22 04:14:58;;;;;;;10.38;6.53;;;11.80;99.90;;;;;;5028462;28;20033;-59
2022/08/22 04:18:01;;;;;;;11.18;6.20;;;11.80;99.90;;;;;;5028469;28;20101;-58
2022/08/22 04:20:41;;;;;;;12.38;7.10;;;11.90;99.90;;;;;;5027038;28;20037;-58
2022/08/22 04:23:40;;;;;;;11.95;6.90;;;11.90;99.90;;;;;;5027473;28;20053;-60
2022/08/22 04:26:12;;;;;;;10.30;6.53;;;11.90;99.90;;;;;;5008743;28;20108;-58
2022/08/22 04:28:47;;;;;;;12.27;6.45;;;11.90;99.90;;;;;;5009292;28;20033;-58
2022/08/22 04:31:17;;;;;;;12.75;6.65;;;11.90;99.90;;;;;;5024585;28;20033;-58
2022/08/22 04:33:54;;;;;;;13.87;6.63;;;11.80;99.90;;;;;;5029263;28;20029;-58
2022/08/22 04:36:29;;;;;;;13.70;6.60;;;11.80;99.90;;;;;;5028389;28;20401;-58
2022/08/22 04:39:07;;;;;;;11.57;6.50;;;11.80;99.90;;;;;;5028194;28;20029;-58
2022/08/22 04:41:51;;;;;;;10.82;6.55;;;11.70;99.90;;;;;;5028391;28;20033;-58
2022/08/22 04:44:26;;;;;;;12.90;7.47;;;11.80;99.90;;;;;;5028530;28;20056;-58
2022/08/22 04:47:30;;;;;;;12.43;6.60;;;11.70;99.90;;;;;;5025020;28;20084;-58
2022/08/22 04:50:03;;;;;;;10.88;6.72;;;11.80;99.90;;;;;;5023285;28;20042;-58
2022/08/22 04:52:47;;;;;;;11.45;7.00;;;11.70;99.90;;;;;;5026135;28;20038;-58
2022/08/22 04:55:31;;;;;;;18.13;6.50;;;11.80;99.90;;;;;;5026279;28;20528;-60
2022/08/22 04:58:45;;;;;;;13.60;8.13;;;11.80;99.90;;;;;;5022877;28;20034;-58
2022/08/22 05:01:36;;;;;;;15.38;8.10;;;11.80;99.90;;;;;;5022786;28;20042;-60
2022/08/22 05:04:18;;;;;;;13.00;7.75;;;11.80;99.90;;;;;;5028843;28;20034;-59
2022/08/22 05:06:49;;;;;;;12.82;7.20;;;11.90;99.90;;;;;;5026924;28;20076;-59
2022/08/22 05:09:20;;;;;;;14.95;7.22;;;12.10;99.90;;;;;;5025352;28;20707;-58
2022/08/22 05:11:52;;;;;;;13.20;7.03;;;12.10;99.90;;;;;;5026648;28;20064;-59
2022/08/22 05:14:41;;;;;;;17.40;7.55;;;12.30;99.90;;;;;;5027806;28;20036;-58
2022/08/22 05:17:11;;;;;;;10.55;6.57;;;12.40;99.90;;;;;;5026030;28;20033;-58
2022/08/22 05:19:40;;;;;;;12.15;6.70;;;12.40;99.90;;;;;;5028185;28;20653;-59
2022/08/22 05:22:17;;;;;;;12.75;6.63;;;12.50;99.90;;;;;;5028418;28;20021;-58
2022/08/22 05:24:47;;;;;;;13.60;6.15;;;12.60;99.90;;;;;;5024920;28;20038;-58
2022/08/22 05:27:21;;;;;;;11.55;6.60;;;12.60;99.90;;;;;;5030144;28;20026;-60
2022/08/22 05:29:52;;;;;;;10.65;6.25;;;12.60;99.90;;;;;;5031372;28;20528;-58
2022/08/22 05:32:27;;;;;;;10.27;6.22;;;12.70;99.90;;;;;;5030517;28;20044;-58
2022/08/22 05:34:59;;;;;;;12.10;6.38;;;12.70;99.90;;;;;;5029850;28;20033;-60
2022/08/22 05:37:46;;;;;;;15.63;6.90;;;12.80;99.90;;;;;;5027623;28;20029;-58
2022/08/22 05:40:25;;;;;;;14.63;6.93;;;13.00;99.90;;;;;;5026345;28;20091;-60
2022/08/22 05:42:53;;;;;;;14.52;6.80;;;13.10;99.90;;;;;;5030194;28;20705;-58
2022/08/22 05:45:20;;;;;;;17.10;7.60;;;13.20;99.90;;;;;;5031045;28;20079;-58
2022/08/22 05:47:52;;;;;;;14.63;6.63;;;13.30;99.90;;;;;;5030560;28;20051;-58
2022/08/22 05:50:30;;;;;;;19.75;7.28;;;13.40;99.90;;;;;;5031319;28;20108;-59
2022/08/22 05:53:08;;;;;;;12.15;6.80;;;13.40;99.90;;;;;;5030410;28;20029;-58
2022/08/22 05:55:54;;;;;;;14.07;7.85;;;13.30;99.90;;;;;;5030860;28;20029;-59
2022/08/22 05:58:34;;;;;;;11.95;7.35;;;13.20;99.90;;;;;;5030099;28;20458;-58
2022/08/22 06:01:41;;;;;;;16.73;8.68;;;13.20;99.90;;;;;;5031625;28;20123;-58
2022/08/22 06:04:14;;;;;;;16.83;9.38;;;13.30;99.90;;;;;;5031104;28;20065;-59
2022/08/22 06:06:45;;;;;;;15.80;8.43;;;13.40;99.90;;;;;;5031363;28;20467;-58
2022/08/22 06:09:38;;;;;;;19.38;8.32;;;13.40;99.90;;;;;;5031712;28;20144;-58
2022/08/22 06:12:17;;;;;;;13.48;8.50;;;13.50;99.90;;;;;;5031474;28;20472;-58
2022/08/22 06:14:45;;;;;;;17.23;8.45;;;13.60;99.90;;;;;;5030202;28;20033;-58
2022/08/22 06:17:17;;;;;;;16.85;8.68;;;13.80;99.90;;;;;;5031439;28;20041;-58
2022/08/22 06:19:48;;;;;;;14.88;7.95;;;14.10;99.90;;;;;;5031258;28;20029;-58
2022/08/22 06:22:23;;;;;;;13.45;7.65;;;14.40;99.90;;;;;;5031064;28;20116;-60
2022/08/22 06:24:52;;;;;;;13.52;7.75;;;14.60;99.90;;;;;;5030262;28;20112;-59
2022/08/22 06:27:22;;;;;;;14.10;8.80;;;15.00;99.90;;;;;;5027473;28;20037;-60
2022/08/22 06:29:55;;;;;;;14.95;7.72;;;15.30;99.90;;;;;;5027523;28;20033;-58
2022/08/22 06:32:32;;;;;;;13.55;8.13;;;15.50;99.90;;;;;;5029531;28;20465;-59
2022/08/22 06:35:20;;;;;;;11.98;7.35;;;15.60;99.90;;;;;;5046093;28;20542;-58
2022/08/22 06:37:48;;;;;;;14.40;7.43;;;15.70;99.90;;;;;;5029091;28;20041;-58
2022/08/22 06:40:16;;;;;;;13.95;8.05;;;15.80;99.90;;;;;;5030182;28;20529;-58
2022/08/22 06:42:48;;;;;;;14.38;8.43;;;15.90;99.90;;;;;;5029825;28;20044;-58
2022/08/22 06:45:36;;;;;;;14.55;7.72;;;16.00;99.90;;;;;;5029644;28;20042;-59
2022/08/22 06:48:23;;;;;;;14.20;8.30;;;16.10;99.90;;;;;;5019923;28;20057;-58
2022/08/22 06:50:54;;;;;;;16.02;8.80;;;16.30;99.90;;;;;;5030043;28;20037;-58
2022/08/22 06:53:25;;;;;;;13.52;8.00;;;16.50;99.90;;;;;;5029492;28;20029;-59
2022/08/22 06:55:57;;;;;;;13.20;8.07;;;16.60;99.90;;;;;;5028769;28;20796;-58
2022/08/22 06:58:36;;;;;;;12.82;9.10;;;16.80;99.90;;;;;;5026544;28;20029;-60
2022/08/22 07:01:07;;;;;;;15.00;9.25;;;17.10;99.90;;;;;;5027483;28;20036;-59
2022/08/22 07:03:39;;;;;;;15.70;9.40;;;17.50;99.90;;;;;;5027697;28;20757;-59
2022/08/22 07:06:10;;;;;;;15.77;9.73;;;17.90;99.90;;;;;;5026561;28;20033;-58
2022/08/22 07:08:36;;;;;;;12.93;8.65;;;18.30;99.90;;;;;;5026430;28;20033;-58
2022/08/22 07:11:17;;;;;;;16.45;9.55;;;18.50;99.90;;;;;;5024639;28;20037;-59
2022/08/22 07:13:45;;;;;;;;;;;18.80;99.90;;;;;;5027993;28;20064;-59
2022/08/22 07:16:11;;;;;;;17.42;8.88;;;19.00;99.90;;;;;;5029331;28;19908;-59
2022/08/22 07:18:47;;;;;;;15.32;9.13;;;19.20;99.90;;;;;;5028275;28;20041;-59
2022/08/22 07:21:24;;;;;;;16.15;8.25;;;19.30;99.90;;;;;;5027372;28;20072;-59
2022/08/22 07:23:50;;;;;;;15.60;8.85;;;19.50;99.90;;;;;;5026413;28;20380;-58
2022/08/22 07:26:29;;;;;;;14.40;8.15;;;19.60;99.90;;;;;;5026267;28;20108;-61
2022/08/22 07:29:00;;;;;;;12.13;8.27;;;19.80;99.90;;;;;;5025643;28;20030;-60
2022/08/22 07:31:32;;;;;;;13.43;8.38;;;20.00;99.90;;;;;;5025773;28;20041;-60
2022/08/22 07:34:43;;;;;;;12.63;8.30;;;20.30;99.90;;;;;;5030156;28;20036;-60
2022/08/22 07:37:33;;;;;;;12.73;8.40;;;20.50;99.90;;;;;;4994982;28;20069;-60
2022/08/22 07:40:26;;;;;;;17.15;7.10;;;20.70;99.90;;;;;;5010260;28;20083;-60
2022/08/22 07:43:11;;;;;;;11.90;7.38;;;21.00;99.90;;;;;;5009855;28;20342;-59
2022/08/22 07:45:53;;;;;;;13.70;7.68;;;21.10;99.90;;;;;;5009045;28;20038;-60
2022/08/22 07:48:41;;;;;;;10.38;7.22;;;21.30;99.90;;;;;;5009359;28;20033;-60
2022/08/22 07:51:42;;;;;;;13.40;6.82;;;21.50;99.90;;;;;;5010012;28;20092;-60
2022/08/22 07:54:13;;;;;;;11.10;6.43;;;21.60;99.90;;;;;;5018817;28;20099;-61
2022/08/22 07:56:41;;;;;;;;;;;21.60;99.90;;;;;;5027994;28;20033;-59
2022/08/22 07:59:13;;;;;;;11.07;5.80;;;21.70;99.90;;;;;;5029476;28;19999;-60
2022/08/22 08:01:45;;;;;;;11.57;5.25;;;21.80;99.90;;;;;;5028069;28;20028;-58
2022/08/22 08:04:16;;;;;;;12.50;5.30;;;21.90;99.90;;;;;;5029440;28;20032;-59
2022/08/22 08:06:45;;;;;;;7.55;4.82;;;22.10;99.90;;;;;;5028869;28;20060;-59
2022/08/22 08:09:16;;;;;;;8.55;5.22;;;22.20;99.90;;;;;;5029460;28;20041;-58
2022/08/22 08:11:43;;;;;;;10.07;5.38;;;22.10;99.90;;;;;;5028440;28;20534;-58
2022/08/22 08:14:13;;;;;;;12.48;5.85;;;22.20;99.90;;;;;;5029256;28;20057;-59
2022/08/22 08:16:55;;;;;;;19.00;5.67;;;22.30;99.90;;;;;;5027863;28;20052;-58
2022/08/22 08:19:23;;;;;;;9.55;5.25;;;22.40;99.90;;;;;;5027868;28;20904;-59
2022/08/22 08:21:53;;;;;;;8.43;5.30;;;22.40;99.90;;;;;;5029118;28;20033;-58
2022/08/22 08:24:23;;;;;;;7.45;5.15;;;22.50;99.90;;;;;;5029187;28;20026;-58
2022/08/22 08:30:00;;;;;;;10.90;5.47;;;22.60;99.90;;;;;;5028267;28;20788;-58
2022/08/22 08:32:32;;;;;;;9.73;5.35;;;22.70;99.90;;;;;;5028271;28;20051;-59
2022/08/22 08:35:30;;;;;;;9.85;5.00;;;22.80;99.90;;;;;;5029044;28;20538;-59
2022/08/22 08:38:21;;;;;;;8.43;4.60;;;23.00;99.90;;;;;;5029146;28;20399;-58
2022/08/22 08:41:02;;;;;;;11.35;4.63;;;23.20;99.90;;;;;;5028844;28;20033;-59
2022/08/22 08:43:35;;;;;;;;;;;23.20;99.80;;;;;;5029035;28;20036;-59
2022/08/22 08:46:28;;;;;;;8.57;4.75;;;23.10;99.60;;;;;;5027802;28;20252;-59
2022/08/22 08:49:22;;;;;;;7.80;4.45;;;23.20;99.60;;;;;;5044331;28;20115;-59
2022/08/22 08:51:54;;;;;;;11.07;4.75;;;23.30;99.20;;;;;;5028489;28;20032;-59
2022/08/22 08:54:44;;;;;;;7.18;4.50;;;23.20;98.80;;;;;;5029030;28;20025;-58
2022/08/22 08:57:42;;;;;;;7.53;4.40;;;23.10;98.10;;;;;;5029096;28;20124;-59
2022/08/22 09:00:16;;;;;;;7.68;4.78;;;23.00;96.30;;;;;;5029596;28;20064;-59
2022/08/22 09:02:48;;;;;;;8.05;4.90;;;23.00;97.20;;;;;;5031051;28;20045;-59
2022/08/22 09:05:25;;;;;;;8.77;4.93;;;23.10;97.50;;;;;;5032840;28;20353;-59
2022/08/22 09:08:26;;;;;;;8.90;4.63;;;23.30;97.90;;;;;;5032485;28;20040;-58
2022/08/22 09:11:10;;;;;;;6.60;4.30;;;23.50;96.00;;;;;;5027996;28;20296;-59
2022/08/22 09:13:59;;;;;;;7.97;4.00;;;23.70;95.60;;;;;;5032080;28;20090;-60
2022/08/22 09:17:02;;;;;;;7.20;4.47;;;23.70;95.20;;;;;;5031776;28;20056;-59
2022/08/22 09:20:05;;;;;;;6.75;4.57;;;23.70;95.60;;;;;;5011924;28;20113;-60
2022/08/22 09:23:04;;;;;;;7.97;4.70;;;23.80;95.10;;;;;;5011661;28;20480;-59
2022/08/22 09:25:47;;;;;;;7.93;4.70;;;24.20;94.30;;;;;;5011745;28;20104;-59
2022/08/22 09:28:31;;;;;;;6.30;4.07;;;24.20;93.10;;;;;;5012404;28;20026;-59
2022/08/22 09:31:14;;;;;;;10.70;5.57;;;24.10;94.20;;;;;;5012494;28;20362;-59
2022/08/22 09:33:54;;;;;;;8.30;4.90;;;24.00;95.00;;;;;;5021043;28;20033;-59
2022/08/22 09:36:28;;;;;;;10.82;5.25;;;23.70;96.20;;;;;;5032151;28;20148;-58
2022/08/22 09:39:15;;;;;;;8.18;4.40;;;23.90;96.20;;;;;;5032211;28;20075;-60
2022/08/22 09:42:08;;;;;;;7.35;4.55;;;24.20;93.90;;;;;;5031215;28;20054;-58
2022/08/22 09:44:58;;;;;;;8.23;4.78;;;24.10;94.40;;;;;;5031174;28;20028;-59
2022/08/22 09:47:42;;;;;;;7.28;4.70;;;24.20;95.80;;;;;;5030976;28;20124;-59
2022/08/22 09:50:16;;;;;;;8.50;4.75;;;24.40;96.00;;;;;;5031776;28;20034;-59
2022/08/22 09:52:58;;;;;;;13.43;4.82;;;24.50;94.40;;;;;;5030896;28;20813;-59
2022/08/22 09:55:43;;;;;;;12.73;5.15;;;24.60;94.10;;;;;;5031876;28;20084;-59
2022/08/22 09:58:42;;;;;;;10.90;5.32;;;24.70;92.90;;;;;;5031884;28;20376;-59
2022/08/22 10:01:17;;;;;;;8.82;4.95;;;24.70;92.80;;;;;;5029381;28;20033;-59
2022/08/22 10:04:13;;;;;;;8.02;4.65;;;24.90;93.00;;;;;;5029777;28;20112;-59
2022/08/22 10:07:00;;;;;;;6.20;3.78;;;25.10;90.60;;;;;;5031156;28;20041;-59
2022/08/22 10:09:46;;;;;;;6.80;3.88;;;25.40;91.10;;;;;;5031608;28;20057;-59
2022/08/22 10:12:20;;;;;;;8.00;4.40;;;25.20;90.90;;;;;;5031031;28;20480;-59
2022/08/22 10:15:23;;;;;;;6.65;3.92;;;25.10;86.70;;;;;;5030709;28;20053;-59
2022/08/22 10:18:07;;;;;;;7.72;4.32;;;25.30;87.10;;;;;;5029689;28;20026;-59
2022/08/22 10:20:52;;;;;;;9.48;4.47;;;25.50;86.90;;;;;;5029919;28;20036;-60
2022/08/22 10:23:42;;;;;;;6.35;3.95;;;25.50;84.80;;;;;;5031310;28;20065;-59
2022/08/22 10:26:28;;;;;;;11.37;4.10;;;25.60;83.60;;;;;;5031235;28;20508;-59
2022/08/22 10:29:05;;;;;;;6.72;4.28;;;25.60;80.70;;;;;;5030420;28;20087;-59
2022/08/22 10:31:43;;;;;;;5.15;3.63;;;25.40;81.90;;;;;;5030702;28;20040;-60
2022/08/22 10:34:29;;;;;;;9.77;4.43;;;25.60;84.40;;;;;;5030280;28;20022;-59
2022/08/22 10:37:13;;;;;;;7.13;4.00;;;25.70;79.60;;;;;;5030914;28;20037;-58
2022/08/22 10:39:51;;;;;;;6.57;4.00;;;25.50;77.10;;;;;;5030321;28;20025;-58
2022/08/22 10:42:34;;;;;;;9.00;3.80;;;25.80;79.00;;;;;;5030757;28;20495;-59
2022/08/22 10:45:18;;;;;;;14.52;4.07;;;25.70;80.50;;;;;;5030878;28;20091;-58
2022/08/22 10:47:52;;;;;;;10.43;4.03;;;25.90;79.40;;;;;;5029510;28;20045;-59
2022/08/22 10:50:23;;;;;;;5.88;3.92;;;26.00;76.30;;;;;;5031017;28;20021;-59
2022/08/22 10:53:28;;;;;;;10.35;4.05;;;25.90;74.20;;;;;;5029871;28;20089;-59
2022/08/22 10:55:43;;;;;;;22.27;4.50;;;26.00;75.30;;;;;;5029607;28;20041;-59
2022/08/22 10:58:19;;;;;;;6.75;4.00;;;26.50;79.80;;;;;;5030618;28;20052;-59
2022/08/22 11:00:53;;;;;;;5.40;3.92;;;27.00;79.40;;;;;;5029967;28;20102;-60
2022/08/22 11:03:37;;;;;;;5.70;3.75;;;27.30;71.70;;;;;;5029783;28;20032;-59
2022/08/22 11:06:22;;;;;;;7.40;3.92;;;27.50;72.50;;;;;;5030207;28;20120;-60
2022/08/22 11:08:51;;;;;;;7.05;3.50;;;27.80;70.20;;;;;;5029572;28;20108;-59
2022/08/22 11:11:34;;;;;;;9.82;3.58;;;27.60;69.70;;;;;;5030009;28;20029;-59
2022/08/22 11:14:35;;;;;;;8.07;3.78;;;27.30;67.10;;;;;;5030236;28;20542;-59
2022/08/22 11:17:24;;;;;;;7.35;3.95;;;27.00;69.80;;;;;;5029773;28;20405;-59
2022/08/22 11:19:50;;;;;;;7.05;3.78;;;27.10;72.90;;;;;;5028252;28;20044;-59
2022/08/22 11:22:41;;;;;;;8.60;3.92;;;27.50;66.70;;;;;;5030235;28;20025;-59
2022/08/22 11:25:20;;;;;;;9.88;3.70;;;27.60;66.80;;;;;;5028395;28;20171;-60
2022/08/22 11:28:08;;;;;;;8.73;3.60;;;27.70;68.70;;;;;;5009571;28;20480;-59
2022/08/22 11:31:08;;;;;;;7.70;3.65;;;27.10;74.40;;;;;;5009537;28;20096;-60
2022/08/22 11:33:40;;;;;;;;;;;26.90;72.20;;;;;;5010464;28;20030;-60
2022/08/22 11:36:39;;;;;;;6.03;3.83;;;26.00;72.40;;;;;;5010279;28;19909;-59
2022/08/22 11:39:28;;;;;;;9.07;4.18;;;25.60;74.20;;;;;;5010012;28;20058;-59
2022/08/22 11:41:57;;;;;;;7.32;3.80;;;25.40;75.10;;;;;;5006564;28;20034;-59
2022/08/22 11:44:44;;;;;;;7.22;4.38;;;25.00;74.40;;;;;;5029755;28;20025;-59
2022/08/22 11:47:14;;;;;;;6.20;3.90;;;24.80;75.20;;;;;;5029496;28;20538;-58
2022/08/22 11:49:49;;;;;;;5.50;3.90;;;24.70;74.90;;;;;;5029104;28;20494;-59
2022/08/22 11:52:49;;;;;;;6.85;3.90;;;24.70;75.20;;;;;;5029667;28;20033;-59
2022/08/22 11:55:24;;;;;;;6.57;3.97;;;25.10;74.80;;;;;;5027425;28;20049;-59
2022/08/22 11:57:56;;;;;;;8.63;4.25;;;25.90;69.80;;;;;;5028435;28;20042;-59
2022/08/22 12:00:28;;;;;;;8.70;4.38;;;26.50;68.10;;;;;;5029448;28;20476;-59
2022/08/22 12:03:20;;;;;;;7.57;4.05;;;26.70;67.00;;;;;;5028849;28;20061;-59
2022/08/22 12:05:49;;;;;;;8.55;3.70;;;27.10;68.70;;;;;;5027214;28;20049;-59
2022/08/22 12:08:35;;;;;;;9.52;3.92;;;27.20;64.40;;;;;;5029446;28;20025;-59
2022/08/22 12:11:07;;;;;;;7.53;4.38;;;27.30;61.30;;;;;;5017226;28;20037;-59
2022/08/22 12:14:03;;;;;;;7.80;3.95;;;27.80;61.10;;;;;;5028826;28;20030;-59
2022/08/22 12:17:13;;;;;;;8.35;4.20;;;27.90;59.20;;;;;;5029385;28;20029;-59
2022/08/22 12:19:48;;;;;;;;;;;28.10;64.90;;;;;;5028920;28;20030;-59
2022/08/22 12:22:36;;;;;;;5.97;4.10;;;27.80;59.20;;;;;;5029178;28;20282;-59
2022/08/22 12:25:18;;;;;;;7.30;3.83;;;28.10;59.80;;;;;;5027943;28;20045;-59
2022/08/22 12:28:05;;;;;;;6.32;3.80;;;27.90;57.80;;;;;;5028566;28;20037;-59
2022/08/22 12:30:35;;;;;;;6.15;3.40;;;27.80;61.60;;;;;;5029475;28;20458;-59
2022/08/22 12:33:03;;;;;;;;;;;28.10;61.80;;;;;;5029399;28;20087;-59
2022/08/22 12:36:06;;;;;;;6.72;3.50;;;28.60;59.20;;;;;;5031272;28;19905;-59
2022/08/22 12:38:53;;;;;;;6.22;3.67;;;28.90;58.70;;;;;;5033320;28;20037;-59
2022/08/22 12:41:40;;;;;;;7.47;3.67;;;28.50;59.10;;;;;;5031375;28;20052;-59
2022/08/22 12:44:27;;;;;;;9.70;3.65;;;28.40;56.30;;;;;;5032332;28;20053;-59
2022/08/22 12:47:28;;;;;;;5.85;3.38;;;28.30;56.80;;;;;;5032236;28;20053;-59
2022/08/22 12:50:17;;;;;;;4.57;3.33;;;28.70;57.40;;;;;;5032093;28;20393;-59
2022/08/22 12:53:09;;;;;;;7.35;3.42;;;28.80;57.20;;;;;;5032290;28;20028;-59
2022/08/22 12:55:50;;;;;;;6.18;3.25;;;28.80;53.90;;;;;;5033171;28;20060;-59
2022/08/22 12:58:41;;;;;;;6.35;3.60;;;28.90;57.40;;;;;;5032350;28;20041;-59
2022/08/22 13:01:09;;;;;;;8.02;3.47;;;28.90;57.30;;;;;;5032782;28;20424;-59
2022/08/22 13:03:43;;;;;;;5.05;3.45;;;28.50;58.90;;;;;;5032535;28;20476;-59
2022/08/22 13:06:34;;;;;;;5.72;3.50;;;28.10;63.90;;;;;;5032689;28;20037;-59
2022/08/22 13:09:18;;;;;;;5.05;3.45;;;28.10;61.20;;;;;;5031904;28;20056;-59
2022/08/22 13:11:47;;;;;;;5.85;3.42;;;28.10;59.30;;;;;;5031881;28;20040;-60
2022/08/22 13:14:19;;;;;;;6.80;3.13;;;28.00;59.30;;;;;;5031073;28;20029;-60
2022/08/22 13:16:49;;;;;;;8.43;3.63;;;28.00;62.30;;;;;;5031707;28;20036;-60
2022/08/22 13:19:25;;;;;;;6.45;3.78;;;28.20;60.40;;;;;;5031260;28;20372;-59
2022/08/22 13:22:03;;;;;;;7.10;3.50;;;28.10;59.20;;;;;;5031647;28;20091;-59
2022/08/22 13:24:37;;;;;;;11.02;3.53;;;27.90;58.80;;;;;;5047661;28;20447;-58
2022/08/22 13:27:13;;;;;;;6.47;3.40;;;27.60;58.20;;;;;;5046834;28;20034;-59
2022/08/22 13:29:49;;;;;;;6.00;3.35;;;27.90;63.00;;;;;;5031544;28;20383;-59
2022/08/22 13:32:29;;;;;;;10.52;3.40;;;28.10;60.00;;;;;;5032032;28;20025;-59
2022/08/22 13:34:56;;;;;;;6.83;3.30;;;28.30;59.90;;;;;;5031766;28;20025;-59
2022/08/22 13:37:38;;;;;;;12.40;3.30;;;28.10;59.00;;;;;;5032232;28;20361;-59
2022/08/22 13:40:11;;;;;;;5.82;3.17;;;28.20;59.30;;;;;;5031402;28;20025;-59
2022/08/22 13:42:46;;;;;;;5.97;3.67;;;28.20;57.10;;;;;;5031237;28;20292;-59
2022/08/22 13:45:31;;;;;;;6.18;3.22;;;28.20;57.30;;;;;;5032042;28;20045;-59
2022/08/22 13:48:06;;;;;;;5.25;3.42;;;28.40;57.30;;;;;;5030319;28;20106;-59
2022/08/22 13:50:38;;;;;;;4.63;3.08;;;28.40;58.20;;;;;;5030723;28;20030;-59
2022/08/22 13:53:12;;;;;;;9.85;3.70;;;28.50;58.50;;;;;;5031068;28;20026;-58
2022/08/22 13:55:54;;;;;;;6.70;3.40;;;28.70;56.60;;;;;;5031838;28;20120;-59
2022/08/22 13:58:37;;;;;;;4.75;2.90;;;28.60;56.00;;;;;;5030673;28;20120;-59
2022/08/22 14:01:06;;;;;;;6.13;3.20;;;28.20;55.90;;;;;;5031014;28;20030;-58